createdAt,value
2022-11-22T00:00:10.338Z,72.21
2022-11-22T00:03:13.535Z,72.14
2022-11-22T00:09:40.870Z,71.43
2022-11-22T00:12:44.681Z,72.12
2022-11-22T00:15:59.545Z,71.51
2022-11-22T00:19:02.324Z,71.47
2022-11-22T00:22:08.376Z,70.86
2022-11-22T00:25:11.616Z,71.24
2022-11-22T00:28:15.710Z,70.81
2022-11-22T00:31:18.517Z,71.31
2022-11-22T00:34:22.652Z,70.81
2022-11-22T00:37:26.940Z,71.57
2022-11-22T00:40:30.893Z,71.67
2022-11-22T00:43:35.016Z,70.58
2022-11-22T00:46:39.112Z,72.05
2022-11-22T00:49:41.914Z,71.24
2022-11-22T00:52:49.847Z,71.68
2022-11-22T00:55:52.811Z,72.04
2022-11-22T00:58:56.943Z,71.69
2022-11-22T01:01:59.777Z,71.17
2022-11-22T01:05:03.797Z,71.18
2022-11-22T01:08:08.358Z,70.25
2022-11-22T01:11:13.353Z,71.68
2022-11-22T01:14:16.434Z,71.17
2022-11-22T01:17:20.684Z,71.64
2022-11-22T01:20:25.256Z,72.00
2022-11-22T01:23:30.624Z,71.66
2022-11-22T01:26:36.900Z,71.00
2022-11-22T01:29:41.293Z,70.92
2022-11-22T01:32:44.937Z,71.98
2022-11-22T01:35:49.117Z,71.98
2022-11-22T01:38:53.285Z,72.22
2022-11-22T01:41:57.387Z,72.08
2022-11-22T01:45:35.555Z,71.88
2022-11-22T01:48:52.297Z,71.28
2022-11-22T01:52:00.770Z,71.64
2022-11-22T01:55:09.538Z,72.09
2022-11-22T01:58:16.393Z,72.15
2022-11-22T02:01:19.281Z,72.44
2022-11-22T02:04:27.425Z,71.81
2022-11-22T02:07:37.829Z,71.77
2022-11-22T02:10:47.809Z,72.33
2022-11-22T02:13:54.748Z,72.11
2022-11-22T02:16:57.635Z,72.52
2022-11-22T02:20:01.630Z,72.45
2022-11-22T02:23:11.320Z,72.79
2022-11-22T02:26:17.210Z,72.61
2022-11-22T02:32:42.530Z,72.30
2022-11-22T02:35:46.945Z,72.00
2022-11-22T02:38:49.919Z,72.40
2022-11-22T02:41:57.926Z,72.45
2022-11-22T02:45:01.915Z,72.21
2022-11-22T02:48:09.674Z,73.41
2022-11-22T02:51:17.924Z,72.41
2022-11-22T02:54:21.062Z,72.21
2022-11-22T02:57:26.476Z,72.78
2022-11-22T03:00:29.396Z,73.37
2022-11-22T03:03:34.446Z,73.60
2022-11-22T03:06:37.127Z,72.65
2022-11-22T03:09:41.137Z,72.58
2022-11-22T03:12:46.478Z,72.55
2022-11-22T03:15:49.264Z,72.48
2022-11-22T03:18:53.197Z,72.88
2022-11-22T03:21:55.834Z,72.29
2022-11-22T03:24:59.844Z,72.49
2022-11-22T03:28:03.906Z,72.86
2022-11-22T03:31:08.655Z,72.74
2022-11-22T03:34:12.920Z,72.09
2022-11-22T03:37:16.979Z,72.31
2022-11-22T03:40:21.091Z,72.52
2022-11-22T03:43:26.595Z,73.33
2022-11-22T03:46:29.411Z,73.06
2022-11-22T03:49:33.480Z,72.40
2022-11-22T03:52:36.225Z,72.88
2022-11-22T03:55:38.927Z,72.56
2022-11-22T03:58:44.244Z,73.84
2022-11-22T04:01:48.304Z,73.26
2022-11-22T04:04:51.063Z,73.07
2022-11-22T04:07:57.307Z,72.62
2022-11-22T04:10:59.991Z,72.59
2022-11-22T04:14:21.949Z,72.70
2022-11-22T04:17:38.532Z,73.17
2022-11-22T04:21:01.203Z,73.29
2022-11-22T04:24:24.454Z,71.94
2022-11-22T04:27:28.385Z,73.44
2022-11-22T04:30:51.752Z,73.85
2022-11-22T04:33:55.755Z,72.81
2022-11-22T04:36:58.741Z,73.51
2022-11-22T04:40:02.703Z,72.93
2022-11-22T04:43:23.273Z,72.75
2022-11-22T04:46:28.638Z,73.24
2022-11-22T04:49:31.470Z,73.82
2022-11-22T04:52:51.856Z,73.91
2022-11-22T04:55:54.772Z,74.47
2022-11-22T04:58:57.461Z,73.76
2022-11-22T05:02:02.827Z,73.62
2022-11-22T05:05:06.280Z,72.69
2022-11-22T05:08:11.058Z,73.48
2022-11-22T05:11:13.745Z,74.29
2022-11-22T05:14:16.495Z,73.20
2022-11-22T05:17:21.846Z,73.54
2022-11-22T05:20:24.525Z,74.00
2022-11-22T05:23:44.623Z,74.36
2022-11-22T05:26:47.287Z,74.04
2022-11-22T05:29:51.382Z,74.20
2022-11-22T05:32:56.000Z,74.96
2022-11-22T05:36:01.017Z,73.73
2022-11-22T05:39:04.945Z,75.41
2022-11-22T05:42:08.995Z,74.93
2022-11-22T05:45:12.155Z,74.94
2022-11-22T05:48:17.468Z,74.83
2022-11-22T05:51:22.101Z,75.15
2022-11-22T05:54:26.067Z,75.56
2022-11-22T05:57:29.236Z,75.52
2022-11-22T06:00:33.167Z,75.14
2022-11-22T06:03:38.068Z,75.21
2022-11-22T06:06:42.119Z,76.24
2022-11-22T06:09:44.848Z,75.36
2022-11-22T06:12:48.758Z,76.30
2022-11-22T06:15:51.425Z,75.47
2022-11-22T06:18:57.153Z,75.08
2022-11-22T06:21:59.878Z,74.67
2022-11-22T06:25:03.889Z,75.01
2022-11-22T06:31:30.802Z,75.78
2022-11-22T06:34:35.093Z,74.68
2022-11-22T06:37:37.867Z,75.39
2022-11-22T06:40:41.843Z,75.73
2022-11-22T06:43:48.989Z,75.34
2022-11-22T06:46:52.244Z,75.28
2022-11-22T06:49:57.545Z,74.84
2022-11-22T06:53:00.230Z,75.10
2022-11-22T06:56:03.621Z,74.62
2022-11-22T06:59:08.029Z,74.17
2022-11-22T07:02:13.081Z,74.75
2022-11-22T07:05:25.762Z,74.28
2022-11-22T07:08:29.089Z,74.44
2022-11-22T07:11:34.195Z,74.56
2022-11-22T07:14:38.587Z,74.36
2022-11-22T07:17:42.295Z,73.96
2022-11-22T07:20:48.107Z,73.47
2022-11-22T07:23:52.151Z,74.06
2022-11-22T07:26:54.857Z,73.13
2022-11-22T07:29:58.801Z,73.29
2022-11-22T07:33:01.462Z,73.35
2022-11-22T07:36:11.507Z,73.56
2022-11-22T07:39:14.480Z,74.06
2022-11-22T07:42:22.344Z,74.91
2022-11-22T07:45:28.741Z,74.04
2022-11-22T07:48:31.588Z,73.14
2022-11-22T07:51:35.598Z,73.48
2022-11-22T07:54:39.568Z,73.53
2022-11-22T07:57:42.362Z,73.09
2022-11-22T08:00:45.034Z,73.36
2022-11-22T08:03:49.254Z,72.77
2022-11-22T08:06:53.322Z,72.24
2022-11-22T08:09:56.930Z,72.59
2022-11-22T08:13:01.049Z,72.92
2022-11-22T08:16:06.113Z,73.30
2022-11-22T08:19:08.975Z,73.38
2022-11-22T08:22:14.332Z,72.64
2022-11-22T08:25:17.356Z,73.64
2022-11-22T08:28:20.187Z,72.40
2022-11-22T08:31:22.874Z,73.48
2022-11-22T08:34:25.927Z,73.13
2022-11-22T08:37:31.916Z,72.34
2022-11-22T08:40:41.173Z,73.13
2022-11-22T08:43:44.771Z,73.10
2022-11-22T08:46:48.976Z,72.64
2022-11-22T08:49:51.679Z,72.82
2022-11-22T08:52:57.055Z,73.67
2022-11-22T08:56:01.949Z,73.50
2022-11-22T08:59:06.368Z,72.33
2022-11-22T09:02:10.714Z,72.95
2022-11-22T09:05:14.685Z,72.17
2022-11-22T09:11:26.257Z,73.12
2022-11-22T09:14:29.284Z,73.09
2022-11-22T09:17:34.742Z,72.50
2022-11-22T09:20:39.112Z,71.78
2022-11-22T09:23:44.447Z,72.17
2022-11-22T09:26:47.239Z,73.26
2022-11-22T09:29:50.046Z,72.78
2022-11-22T09:32:54.026Z,72.41
2022-11-22T09:36:07.426Z,72.78
2022-11-22T09:43:04.158Z,72.53
2022-11-22T09:46:17.171Z,74.11
2022-11-22T09:49:28.555Z,72.92
2022-11-22T09:52:35.854Z,72.46
2022-11-22T09:55:44.652Z,73.06
2022-11-22T09:58:51.550Z,73.42
2022-11-22T10:02:11.595Z,72.92
2022-11-22T10:05:26.392Z,72.91
2022-11-22T10:08:40.982Z,71.65
2022-11-22T10:11:50.248Z,72.83
2022-11-22T10:14:58.824Z,74.00
2022-11-22T10:18:05.771Z,72.46
2022-11-22T10:21:12.638Z,73.43
2022-11-22T10:24:18.126Z,73.13
2022-11-22T10:27:22.882Z,73.06
2022-11-22T10:30:26.203Z,73.37
2022-11-22T10:37:07.457Z,72.56
2022-11-22T10:40:18.212Z,72.89
2022-11-22T10:43:35.325Z,72.65
2022-11-22T10:46:48.540Z,73.18
2022-11-22T10:50:00.857Z,73.24
2022-11-22T10:53:13.645Z,73.35
2022-11-22T10:56:28.182Z,72.81
2022-11-22T10:59:45.901Z,73.53
2022-11-22T11:03:07.150Z,74.00
2022-11-22T11:06:33.357Z,73.53
2022-11-22T11:13:15.317Z,73.54
2022-11-22T11:16:24.503Z,73.70
2022-11-22T11:19:31.352Z,72.93
2022-11-22T11:26:20.487Z,73.38
2022-11-22T11:29:38.467Z,72.93
2022-11-22T11:32:54.103Z,73.13
2022-11-22T11:36:02.438Z,74.37
2022-11-22T11:39:06.547Z,73.83
2022-11-22T11:42:23.618Z,73.48
2022-11-22T11:45:30.188Z,73.90
2022-11-22T11:48:41.049Z,73.56
2022-11-22T11:55:06.177Z,73.92
2022-11-22T11:58:21.323Z,74.03
2022-11-22T12:04:52.382Z,73.57
2022-11-22T12:07:55.203Z,74.70
2022-11-22T12:11:03.912Z,74.89
2022-11-22T12:14:19.926Z,74.25
2022-11-22T12:17:28.820Z,75.20
2022-11-22T12:24:41.426Z,74.27
2022-11-22T12:27:37.878Z,74.64
2022-11-22T12:30:44.067Z,74.74
2022-11-22T12:33:55.365Z,73.52
2022-11-22T12:37:06.643Z,73.92
2022-11-22T12:40:18.177Z,74.01
2022-11-22T12:43:27.360Z,73.98
2022-11-22T12:46:39.600Z,74.54
2022-11-22T12:49:46.770Z,74.31
2022-11-22T12:52:56.504Z,74.81
2022-11-22T12:56:03.350Z,74.99
2022-11-22T12:59:21.043Z,75.38
2022-11-22T13:02:33.366Z,74.78
2022-11-22T13:05:45.270Z,73.26
2022-11-22T13:09:03.222Z,74.66
2022-11-22T13:12:11.842Z,74.22
2022-11-22T13:15:17.982Z,73.57
2022-11-22T13:18:21.874Z,74.16
2022-11-22T13:21:32.417Z,73.65
2022-11-22T13:24:49.145Z,72.90
2022-11-22T13:27:54.357Z,73.57
2022-11-22T13:31:15.164Z,74.66
2022-11-22T13:34:26.539Z,73.76
2022-11-22T13:37:31.971Z,73.68
2022-11-22T13:40:40.978Z,74.45
2022-11-22T13:43:54.573Z,75.34
2022-11-22T13:47:01.478Z,74.40
2022-11-22T13:50:53.511Z,74.25
2022-11-22T13:54:41.930Z,74.39
2022-11-22T13:57:47.324Z,74.80
2022-11-22T14:00:50.314Z,74.36
2022-11-22T14:03:54.459Z,75.00
2022-11-22T14:07:02.780Z,75.32
2022-11-22T14:10:21.990Z,74.99
2022-11-22T14:13:36.867Z,75.84
2022-11-22T14:16:54.815Z,75.72
2022-11-22T14:20:06.534Z,75.21
2022-11-22T14:23:19.829Z,75.23
2022-11-22T14:26:30.549Z,74.87
2022-11-22T14:30:04.526Z,75.50
2022-11-22T14:33:16.783Z,76.13
2022-11-22T14:36:19.546Z,76.21
2022-11-22T14:40:07.145Z,75.44
2022-11-22T14:43:29.725Z,75.11
2022-11-22T14:46:56.542Z,76.51
2022-11-22T14:50:01.157Z,74.97
2022-11-22T14:53:16.611Z,75.48
2022-11-22T14:56:25.944Z,75.01
2022-11-22T14:59:52.165Z,74.90
2022-11-22T15:03:31.521Z,76.29
2022-11-22T15:09:18.106Z,75.85
2022-11-22T15:10:26.850Z,75.22
2022-11-22T15:13:46.346Z,76.02
2022-11-22T15:58:47.866Z,75.28
2022-11-22T16:01:50.859Z,76.43
2022-11-22T16:06:06.254Z,75.44
2022-11-22T16:08:22.357Z,74.89
2022-11-22T16:11:31.043Z,74.98
2022-11-22T16:14:49.828Z,75.38
2022-11-22T16:17:59.642Z,75.92
2022-11-22T16:21:05.907Z,76.18
2022-11-22T16:24:12.625Z,75.95
2022-11-22T16:27:17.671Z,75.72
2022-11-22T16:30:23.727Z,76.72
2022-11-22T16:33:28.136Z,77.37
2022-11-22T16:36:31.183Z,76.70
2022-11-22T16:39:34.216Z,76.56
2022-11-22T16:42:39.261Z,76.48
2022-11-22T16:45:45.110Z,76.21
2022-11-22T16:48:48.414Z,76.97
2022-11-22T16:55:16.270Z,77.06
2022-11-22T16:58:20.306Z,77.38
2022-11-22T17:01:27.583Z,76.81
2022-11-22T17:04:30.817Z,75.70
2022-11-22T17:07:33.545Z,77.27
2022-11-22T17:10:37.400Z,76.35
2022-11-22T17:13:40.085Z,77.06
2022-11-22T17:16:46.987Z,76.88
2022-11-22T17:19:53.855Z,76.25
2022-11-22T17:22:56.783Z,76.50
2022-11-22T17:25:59.521Z,77.94
2022-11-22T17:29:02.177Z,76.12
2022-11-22T17:32:06.719Z,76.88
2022-11-22T17:35:10.908Z,77.16
2022-11-22T17:38:13.618Z,77.60
2022-11-22T17:41:16.421Z,77.04
2022-11-22T17:44:20.557Z,76.90
2022-11-22T17:47:24.622Z,78.26
2022-11-22T17:50:28.630Z,76.93
2022-11-22T17:53:32.640Z,77.42
2022-11-22T17:56:36.179Z,76.06
2022-11-22T17:59:38.850Z,76.70
2022-11-22T18:02:43.227Z,77.22
2022-11-22T18:05:47.197Z,77.20
2022-11-22T18:08:51.454Z,77.54
2022-11-22T18:11:55.397Z,76.68
2022-11-22T18:14:58.046Z,76.28
2022-11-22T18:18:03.433Z,76.53
2022-11-22T18:21:11.442Z,76.47
2022-11-22T18:24:18.148Z,76.69
2022-11-22T18:27:22.778Z,76.94
2022-11-22T18:30:25.436Z,77.15
2022-11-22T18:33:34.621Z,76.36
2022-11-22T18:36:54.537Z,75.97
2022-11-22T18:39:59.567Z,75.46
2022-11-22T18:43:02.259Z,76.27
2022-11-22T18:46:07.942Z,76.53
2022-11-22T18:49:13.402Z,76.64
2022-11-22T18:52:18.108Z,77.07
2022-11-22T18:55:21.664Z,77.20
2022-11-22T18:58:24.414Z,76.95
2022-11-22T19:01:30.407Z,76.87
2022-11-22T19:04:34.798Z,76.89
2022-11-22T19:07:37.763Z,76.45
2022-11-22T19:10:40.623Z,76.59
2022-11-22T19:13:44.973Z,77.01
2022-11-22T19:16:47.747Z,77.32
2022-11-22T19:19:58.150Z,77.33
2022-11-22T19:23:03.544Z,77.05
2022-11-22T19:26:08.533Z,76.38
2022-11-22T19:29:12.561Z,76.95
2022-11-22T19:35:41.684Z,75.88
2022-11-22T19:38:46.303Z,76.89
2022-11-22T19:41:50.286Z,76.90
2022-11-22T19:44:52.986Z,77.24
2022-11-22T19:47:57.359Z,76.37
2022-11-22T19:51:05.985Z,76.62
2022-11-22T19:54:08.871Z,76.87
2022-11-22T19:57:12.815Z,75.84
2022-11-22T20:00:16.881Z,76.73
2022-11-22T20:03:19.584Z,76.27
2022-11-22T20:06:24.071Z,76.94
2022-11-22T20:09:28.115Z,76.77
2022-11-22T20:12:31.122Z,75.46
2022-11-22T20:15:35.122Z,76.15
2022-11-22T20:18:38.098Z,76.18
2022-11-22T20:21:42.370Z,76.52
2022-11-22T20:24:45.068Z,76.96
2022-11-22T20:27:49.050Z,76.90
2022-11-22T20:30:51.898Z,76.40
2022-11-22T20:33:57.584Z,76.37
2022-11-22T20:37:04.613Z,77.56
2022-11-22T20:40:08.851Z,77.14
2022-11-22T20:43:11.843Z,76.50
2022-11-22T20:46:16.466Z,77.24
2022-11-22T20:52:42.518Z,78.11
2022-11-22T20:55:45.236Z,77.66
2022-11-22T20:58:48.599Z,77.35
2022-11-22T21:01:52.569Z,76.90
2022-11-22T21:04:55.265Z,77.75
2022-11-22T21:08:03.888Z,77.78
2022-11-22T21:11:10.742Z,77.99
2022-11-22T21:14:14.774Z,78.27
2022-11-22T21:17:41.872Z,77.69
2022-11-22T21:20:41.388Z,77.06
2022-11-22T21:23:46.728Z,77.04
2022-11-22T21:26:51.967Z,77.96
2022-11-22T21:29:56.037Z,77.24
2022-11-22T21:33:00.007Z,77.35
2022-11-22T21:36:03.708Z,77.25
2022-11-22T21:39:07.807Z,77.23
2022-11-22T21:42:12.122Z,78.00
2022-11-22T21:45:14.955Z,77.80
2022-11-22T21:48:19.391Z,76.70
2022-11-22T21:51:23.045Z,76.48
2022-11-22T21:54:29.007Z,76.70
2022-11-22T21:57:31.941Z,77.42
2022-11-22T22:00:35.903Z,78.18
2022-11-22T22:03:40.054Z,77.00
2022-11-22T22:06:46.270Z,77.83
2022-11-22T22:09:50.454Z,77.21
2022-11-22T22:12:54.407Z,77.01
2022-11-22T22:15:58.321Z,77.75
2022-11-22T22:19:08.044Z,78.03
2022-11-22T22:22:11.986Z,78.34
2022-11-22T22:25:17.814Z,78.59
2022-11-22T22:28:20.496Z,78.66
2022-11-22T22:31:25.366Z,78.13
2022-11-22T22:34:29.514Z,77.65
2022-11-22T22:37:33.622Z,77.91
2022-11-22T22:40:38.927Z,77.29
2022-11-22T22:43:45.223Z,78.03
2022-11-22T22:46:49.255Z,78.59
2022-11-22T22:49:53.175Z,79.02
2022-11-22T22:52:55.851Z,78.98
2022-11-22T22:56:01.221Z,79.17
2022-11-22T22:59:07.759Z,78.36
2022-11-22T23:02:12.040Z,77.97
2022-11-22T23:05:16.169Z,78.04
2022-11-22T23:08:18.859Z,78.19
2022-11-22T23:11:46.059Z,78.56
2022-11-22T23:14:50.031Z,79.15
2022-11-22T23:17:53.345Z,78.64
2022-11-22T23:21:01.051Z,79.91
2022-11-22T23:24:07.277Z,79.03
2022-11-22T23:27:12.588Z,79.03
2022-11-22T23:30:17.293Z,79.28
2022-11-22T23:33:20.053Z,79.78
2022-11-22T23:36:25.109Z,79.83
2022-11-22T23:39:27.857Z,79.86
2022-11-22T23:42:33.231Z,79.07
2022-11-22T23:45:37.021Z,78.63
2022-11-22T23:48:39.707Z,78.98
2022-11-22T23:55:04.392Z,78.65
2022-11-22T23:58:09.682Z,77.99
